Terminal Aerodrome Forecast
Issued by NWS

Home | Current Version | Previous Version | Text Only | Print | Product List | Glossary On
Versions: 1 2 3 4 5 6 7 8 9 10 11 12 13 14 15 16 17 18 19 20 21 22 23 24 25 26 27 28 29
401
FTUS46 KOTX 102328
TAFSFF
TAF
KSFF 102328Z 1100/1124 17003KT P6SM SCT070 BKN110
     FM110900 VRB02KT 4SM BR SCT006 OVC010
     FM111800 07002KT P6SM OVC025
     FM112000 06004KT P6SM VCSH SCT025 BKN040 OVC050=

USA.gov is the U.S. government's official web portal to all federal, state and local government web resources and services.